sensor_id;sensor_type;location;lat;lon;timestamp;P1;durP1;ratioP1;P2;durP2;ratioP2
46222;SDS011;31943;51.410;7.564;2023-05-07T00:02:07;5.65;;;4.00;;
46222;SDS011;31943;51.410;7.564;2023-05-07T00:04:35;8.07;;;5.18;;
46222;SDS011;31943;51.410;7.564;2023-05-07T00:07:00;5.35;;;3.50;;
46222;SDS011;31943;51.410;7.564;2023-05-07T00:09:27;3.42;;;3.13;;
46222;SDS011;31943;51.410;7.564;2023-05-07T00:11:52;4.43;;;4.03;;
46222;SDS011;31943;51.410;7.564;2023-05-07T00:14:19;4.93;;;4.43;;
46222;SDS011;31943;51.410;7.564;2023-05-07T00:16:46;5.70;;;4.95;;
46222;SDS011;31943;51.410;7.564;2023-05-07T00:19:12;7.80;;;6.10;;
46222;SDS011;31943;51.410;7.564;2023-05-07T00:21:38;5.70;;;5.20;;
46222;SDS011;31943;51.410;7.564;2023-05-07T00:24:04;9.13;;;6.32;;
46222;SDS011;31943;51.410;7.564;2023-05-07T00:26:29;6.68;;;5.05;;
46222;SDS011;31943;51.410;7.564;2023-05-07T00:28:57;6.60;;;4.30;;
46222;SDS011;31943;51.410;7.564;2023-05-07T00:31:23;6.63;;;4.63;;
46222;SDS011;31943;51.410;7.564;2023-05-07T00:33:50;8.30;;;4.85;;
46222;SDS011;31943;51.410;7.564;2023-05-07T00:36:16;6.10;;;5.07;;
46222;SDS011;31943;51.410;7.564;2023-05-07T00:38:42;6.57;;;5.43;;
46222;SDS011;31943;51.410;7.564;2023-05-07T00:41:08;6.05;;;5.00;;
46222;SDS011;31943;51.410;7.564;2023-05-07T00:43:34;6.20;;;4.50;;
46222;SDS011;31943;51.410;7.564;2023-05-07T00:45:59;5.07;;;4.60;;
46222;SDS011;31943;51.410;7.564;2023-05-07T00:48:26;8.98;;;5.13;;
46222;SDS011;31943;51.410;7.564;2023-05-07T00:50:54;4.82;;;3.72;;
46222;SDS011;31943;51.410;7.564;2023-05-07T00:53:21;5.10;;;4.07;;
46222;SDS011;31943;51.410;7.564;2023-05-07T00:55:47;5.00;;;4.55;;
46222;SDS011;31943;51.410;7.564;2023-05-07T00:58:13;4.72;;;4.32;;
46222;SDS011;31943;51.410;7.564;2023-05-07T01:00:40;6.38;;;4.32;;
46222;SDS011;31943;51.410;7.564;2023-05-07T01:03:07;5.88;;;4.68;;
46222;SDS011;31943;51.410;7.564;2023-05-07T01:05:32;5.05;;;3.80;;
46222;SDS011;31943;51.410;7.564;2023-05-07T01:08:07;5.40;;;4.90;;
46222;SDS011;31943;51.410;7.564;2023-05-07T01:10:32;5.30;;;3.90;;
46222;SDS011;31943;51.410;7.564;2023-05-07T01:13:03;9.15;;;5.47;;
46222;SDS011;31943;51.410;7.564;2023-05-07T01:15:30;7.95;;;5.22;;
46222;SDS011;31943;51.410;7.564;2023-05-07T01:17:57;6.30;;;4.07;;
46222;SDS011;31943;51.410;7.564;2023-05-07T01:20:27;6.28;;;4.85;;
46222;SDS011;31943;51.410;7.564;2023-05-07T01:22:56;5.90;;;4.32;;
46222;SDS011;31943;51.410;7.564;2023-05-07T01:25:24;9.07;;;4.72;;
46222;SDS011;31943;51.410;7.564;2023-05-07T01:27:49;4.43;;;3.65;;
46222;SDS011;31943;51.410;7.564;2023-05-07T01:30:15;4.00;;;3.70;;
46222;SDS011;31943;51.410;7.564;2023-05-07T01:32:47;4.95;;;4.35;;
46222;SDS011;31943;51.410;7.564;2023-05-07T01:35:18;3.78;;;2.80;;
46222;SDS011;31943;51.410;7.564;2023-05-07T01:37:44;4.05;;;3.38;;
46222;SDS011;31943;51.410;7.564;2023-05-07T01:40:13;7.15;;;3.97;;
46222;SDS011;31943;51.410;7.564;2023-05-07T01:42:39;4.53;;;3.97;;
46222;SDS011;31943;51.410;7.564;2023-05-07T01:45:08;5.30;;;4.80;;
46222;SDS011;31943;51.410;7.564;2023-05-07T01:47:35;6.43;;;5.28;;
46222;SDS011;31943;51.410;7.564;2023-05-07T01:50:02;6.93;;;5.47;;
46222;SDS011;31943;51.410;7.564;2023-05-07T01:52:30;6.40;;;5.75;;
46222;SDS011;31943;51.410;7.564;2023-05-07T01:54:57;4.60;;;4.07;;
46222;SDS011;31943;51.410;7.564;2023-05-07T01:57:26;5.53;;;4.10;;
46222;SDS011;31943;51.410;7.564;2023-05-07T01:59:52;4.40;;;3.30;;
46222;SDS011;31943;51.410;7.564;2023-05-07T02:02:17;3.92;;;3.60;;
46222;SDS011;31943;51.410;7.564;2023-05-07T02:04:43;4.90;;;3.60;;
46222;SDS011;31943;51.410;7.564;2023-05-07T02:07:09;5.07;;;4.68;;
46222;SDS011;31943;51.410;7.564;2023-05-07T02:09:34;7.88;;;4.50;;
46222;SDS011;31943;51.410;7.564;2023-05-07T02:12:00;5.82;;;4.43;;
46222;SDS011;31943;51.410;7.564;2023-05-07T02:14:27;5.32;;;4.82;;
46222;SDS011;31943;51.410;7.564;2023-05-07T02:16:53;5.00;;;4.60;;
46222;SDS011;31943;51.410;7.564;2023-05-07T02:19:18;4.05;;;3.65;;
46222;SDS011;31943;51.410;7.564;2023-05-07T02:21:44;5.50;;;4.63;;
46222;SDS011;31943;51.410;7.564;2023-05-07T02:24:10;5.63;;;4.55;;
46222;SDS011;31943;51.410;7.564;2023-05-07T02:26:36;3.50;;;3.20;;
46222;SDS011;31943;51.410;7.564;2023-05-07T02:29:02;4.75;;;4.25;;
46222;SDS011;31943;51.410;7.564;2023-05-07T02:31:31;4.00;;;3.08;;
46222;SDS011;31943;51.410;7.564;2023-05-07T02:33:57;3.83;;;3.42;;
46222;SDS011;31943;51.410;7.564;2023-05-07T02:36:22;3.80;;;2.95;;
46222;SDS011;31943;51.410;7.564;2023-05-07T02:38:48;6.18;;;3.70;;
46222;SDS011;31943;51.410;7.564;2023-05-07T02:41:14;5.35;;;3.40;;
46222;SDS011;31943;51.410;7.564;2023-05-07T02:43:39;5.55;;;3.88;;
46222;SDS011;31943;51.410;7.564;2023-05-07T02:46:05;4.20;;;3.80;;
46222;SDS011;31943;51.410;7.564;2023-05-07T02:48:35;5.43;;;4.93;;
46222;SDS011;31943;51.410;7.564;2023-05-07T02:51:02;4.95;;;4.22;;
46222;SDS011;31943;51.410;7.564;2023-05-07T02:53:28;5.30;;;3.65;;
46222;SDS011;31943;51.410;7.564;2023-05-07T02:55:55;4.43;;;3.50;;
46222;SDS011;31943;51.410;7.564;2023-05-07T02:58:21;7.30;;;3.85;;
46222;SDS011;31943;51.410;7.564;2023-05-07T03:00:47;4.90;;;3.80;;
46222;SDS011;31943;51.410;7.564;2023-05-07T03:03:13;4.85;;;3.22;;
46222;SDS011;31943;51.410;7.564;2023-05-07T03:05:40;3.80;;;2.97;;
46222;SDS011;31943;51.410;7.564;2023-05-07T03:08:05;4.70;;;2.80;;
46222;SDS011;31943;51.410;7.564;2023-05-07T03:10:31;4.82;;;3.47;;
46222;SDS011;31943;51.410;7.564;2023-05-07T03:12:57;5.38;;;3.55;;
46222;SDS011;31943;51.410;7.564;2023-05-07T03:15:23;5.13;;;3.20;;
46222;SDS011;31943;51.410;7.564;2023-05-07T03:17:49;4.68;;;2.85;;
46222;SDS011;31943;51.410;7.564;2023-05-07T03:20:15;3.78;;;2.50;;
46222;SDS011;31943;51.410;7.564;2023-05-07T03:22:42;2.95;;;2.58;;
46222;SDS011;31943;51.410;7.564;2023-05-07T03:25:08;4.43;;;2.80;;
46222;SDS011;31943;51.410;7.564;2023-05-07T03:27:34;2.03;;;1.83;;
46222;SDS011;31943;51.410;7.564;2023-05-07T03:30:00;5.57;;;3.00;;
46222;SDS011;31943;51.410;7.564;2023-05-07T03:32:26;5.72;;;2.85;;
46222;SDS011;31943;51.410;7.564;2023-05-07T03:34:52;3.17;;;2.70;;
46222;SDS011;31943;51.410;7.564;2023-05-07T03:37:17;2.83;;;2.60;;
46222;SDS011;31943;51.410;7.564;2023-05-07T03:39:45;4.53;;;2.47;;
46222;SDS011;31943;51.410;7.564;2023-05-07T03:42:10;4.10;;;3.08;;
46222;SDS011;31943;51.410;7.564;2023-05-07T03:44:36;4.45;;;2.78;;
46222;SDS011;31943;51.410;7.564;2023-05-07T03:47:02;4.43;;;2.92;;
46222;SDS011;31943;51.410;7.564;2023-05-07T03:49:28;8.32;;;2.70;;
46222;SDS011;31943;51.410;7.564;2023-05-07T03:51:53;5.47;;;3.00;;
46222;SDS011;31943;51.410;7.564;2023-05-07T03:54:19;3.80;;;2.55;;
46222;SDS011;31943;51.410;7.564;2023-05-07T03:56:47;4.03;;;2.78;;
46222;SDS011;31943;51.410;7.564;2023-05-07T03:59:14;5.25;;;2.25;;
46222;SDS011;31943;51.410;7.564;2023-05-07T04:01:41;4.00;;;2.30;;
46222;SDS011;31943;51.410;7.564;2023-05-07T04:04:07;3.83;;;2.20;;
46222;SDS011;31943;51.410;7.564;2023-05-07T04:06:33;6.97;;;2.92;;
46222;SDS011;31943;51.410;7.564;2023-05-07T04:08:58;3.28;;;1.92;;
46222;SDS011;31943;51.410;7.564;2023-05-07T04:11:27;2.58;;;2.15;;
46222;SDS011;31943;51.410;7.564;2023-05-07T04:13:54;2.88;;;2.58;;
46222;SDS011;31943;51.410;7.564;2023-05-07T04:16:20;2.40;;;2.15;;
46222;SDS011;31943;51.410;7.564;2023-05-07T04:18:46;2.63;;;2.42;;
46222;SDS011;31943;51.410;7.564;2023-05-07T04:21:15;4.43;;;1.95;;
46222;SDS011;31943;51.410;7.564;2023-05-07T04:23:41;2.75;;;2.55;;
46222;SDS011;31943;51.410;7.564;2023-05-07T04:26:07;4.45;;;2.33;;
46222;SDS011;31943;51.410;7.564;2023-05-07T04:28:33;3.28;;;2.20;;
46222;SDS011;31943;51.410;7.564;2023-05-07T04:31:04;4.97;;;2.40;;
46222;SDS011;31943;51.410;7.564;2023-05-07T04:33:30;5.20;;;2.03;;
46222;SDS011;31943;51.410;7.564;2023-05-07T04:35:56;4.45;;;1.98;;
46222;SDS011;31943;51.410;7.564;2023-05-07T04:38:22;3.10;;;2.42;;
46222;SDS011;31943;51.410;7.564;2023-05-07T04:40:47;2.58;;;2.38;;
46222;SDS011;31943;51.410;7.564;2023-05-07T04:43:13;2.30;;;2.05;;
46222;SDS011;31943;51.410;7.564;2023-05-07T04:45:39;3.83;;;2.47;;
46222;SDS011;31943;51.410;7.564;2023-05-07T04:48:08;3.47;;;2.42;;
46222;SDS011;31943;51.410;7.564;2023-05-07T04:50:34;5.28;;;2.17;;
46222;SDS011;31943;51.410;7.564;2023-05-07T04:52:59;2.78;;;2.50;;
46222;SDS011;31943;51.410;7.564;2023-05-07T04:55:25;2.10;;;1.90;;
46222;SDS011;31943;51.410;7.564;2023-05-07T04:57:51;2.42;;;2.22;;
46222;SDS011;31943;51.410;7.564;2023-05-07T05:00:18;4.65;;;2.05;;
46222;SDS011;31943;51.410;7.564;2023-05-07T05:02:45;2.92;;;2.42;;
46222;SDS011;31943;51.410;7.564;2023-05-07T05:05:14;4.40;;;2.75;;
46222;SDS011;31943;51.410;7.564;2023-05-07T05:07:40;2.75;;;2.22;;
46222;SDS011;31943;51.410;7.564;2023-05-07T05:10:07;6.00;;;2.90;;
46222;SDS011;31943;51.410;7.564;2023-05-07T05:12:32;3.30;;;2.83;;
46222;SDS011;31943;51.410;7.564;2023-05-07T05:14:58;3.47;;;3.17;;
46222;SDS011;31943;51.410;7.564;2023-05-07T05:17:24;3.55;;;3.25;;
46222;SDS011;31943;51.410;7.564;2023-05-07T05:19:50;4.05;;;2.67;;
46222;SDS011;31943;51.410;7.564;2023-05-07T05:22:19;3.97;;;2.63;;
46222;SDS011;31943;51.410;7.564;2023-05-07T05:24:46;3.85;;;2.55;;
46222;SDS011;31943;51.410;7.564;2023-05-07T05:27:11;3.78;;;2.83;;
46222;SDS011;31943;51.410;7.564;2023-05-07T05:29:37;3.30;;;3.00;;
46222;SDS011;31943;51.410;7.564;2023-05-07T05:32:03;3.75;;;3.40;;
46222;SDS011;31943;51.410;7.564;2023-05-07T05:34:28;3.50;;;2.92;;
46222;SDS011;31943;51.410;7.564;2023-05-07T05:36:54;4.15;;;3.75;;
46222;SDS011;31943;51.410;7.564;2023-05-07T05:39:21;5.85;;;4.88;;
46222;SDS011;31943;51.410;7.564;2023-05-07T05:41:47;4.47;;;4.03;;
46222;SDS011;31943;51.410;7.564;2023-05-07T05:44:14;7.45;;;4.63;;
46222;SDS011;31943;51.410;7.564;2023-05-07T05:46:39;4.00;;;3.65;;
46222;SDS011;31943;51.410;7.564;2023-05-07T05:49:05;4.22;;;3.92;;
46222;SDS011;31943;51.410;7.564;2023-05-07T05:51:31;4.85;;;4.40;;
46222;SDS011;31943;51.410;7.564;2023-05-07T05:53:56;7.13;;;4.45;;
46222;SDS011;31943;51.410;7.564;2023-05-07T05:56:24;7.35;;;4.57;;
46222;SDS011;31943;51.410;7.564;2023-05-07T05:58:49;5.75;;;4.30;;
46222;SDS011;31943;51.410;7.564;2023-05-07T06:01:15;5.40;;;4.70;;
46222;SDS011;31943;51.410;7.564;2023-05-07T06:03:42;5.85;;;4.55;;
46222;SDS011;31943;51.410;7.564;2023-05-07T06:06:08;7.10;;;4.80;;
46222;SDS011;31943;51.410;7.564;2023-05-07T06:08:34;5.85;;;5.20;;
46222;SDS011;31943;51.410;7.564;2023-05-07T06:11:00;6.60;;;5.78;;
46222;SDS011;31943;51.410;7.564;2023-05-07T06:13:27;6.63;;;5.95;;
46222;SDS011;31943;51.410;7.564;2023-05-07T06:15:53;6.07;;;5.47;;
46222;SDS011;31943;51.410;7.564;2023-05-07T06:18:19;5.82;;;5.32;;
46222;SDS011;31943;51.410;7.564;2023-05-07T06:20:45;5.15;;;4.70;;
46222;SDS011;31943;51.410;7.564;2023-05-07T06:23:13;6.75;;;5.40;;
46222;SDS011;31943;51.410;7.564;2023-05-07T06:25:39;5.32;;;4.82;;
46222;SDS011;31943;51.410;7.564;2023-05-07T06:28:05;7.45;;;4.78;;
46222;SDS011;31943;51.410;7.564;2023-05-07T06:30:33;5.30;;;4.57;;
46222;SDS011;31943;51.410;7.564;2023-05-07T06:32:59;5.28;;;4.28;;
46222;SDS011;31943;51.410;7.564;2023-05-07T06:35:24;6.32;;;4.60;;
46222;SDS011;31943;51.410;7.564;2023-05-07T06:37:52;4.38;;;3.70;;
46222;SDS011;31943;51.410;7.564;2023-05-07T06:40:21;6.35;;;3.83;;
46222;SDS011;31943;51.410;7.564;2023-05-07T06:42:47;8.50;;;3.38;;
46222;SDS011;31943;51.410;7.564;2023-05-07T06:45:14;3.85;;;3.05;;
46222;SDS011;31943;51.410;7.564;2023-05-07T06:47:41;4.95;;;2.80;;
46222;SDS011;31943;51.410;7.564;2023-05-07T06:50:07;4.13;;;2.90;;
46222;SDS011;31943;51.410;7.564;2023-05-07T06:52:33;4.30;;;2.38;;
46222;SDS011;31943;51.410;7.564;2023-05-07T06:54:59;5.25;;;2.38;;
46222;SDS011;31943;51.410;7.564;2023-05-07T06:57:25;3.90;;;2.30;;
46222;SDS011;31943;51.410;7.564;2023-05-07T06:59:50;2.67;;;2.20;;
46222;SDS011;31943;51.410;7.564;2023-05-07T07:02:19;5.50;;;2.50;;
46222;SDS011;31943;51.410;7.564;2023-05-07T07:04:46;2.78;;;2.15;;
46222;SDS011;31943;51.410;7.564;2023-05-07T07:07:12;2.55;;;2.30;;
46222;SDS011;31943;51.410;7.564;2023-05-07T07:09:38;2.65;;;2.30;;
46222;SDS011;31943;51.410;7.564;2023-05-07T07:12:03;4.20;;;2.90;;
46222;SDS011;31943;51.410;7.564;2023-05-07T07:14:30;3.38;;;2.13;;
46222;SDS011;31943;51.410;7.564;2023-05-07T07:16:56;3.08;;;2.78;;
46222;SDS011;31943;51.410;7.564;2023-05-07T07:19:22;4.32;;;2.47;;
46222;SDS011;31943;51.410;7.564;2023-05-07T07:21:50;3.55;;;2.50;;
46222;SDS011;31943;51.410;7.564;2023-05-07T07:24:15;6.20;;;2.80;;
46222;SDS011;31943;51.410;7.564;2023-05-07T07:26:41;4.07;;;2.90;;
46222;SDS011;31943;51.410;7.564;2023-05-07T07:29:07;3.67;;;2.53;;
46222;SDS011;31943;51.410;7.564;2023-05-07T07:31:32;2.92;;;2.13;;
46222;SDS011;31943;51.410;7.564;2023-05-07T07:33:58;3.08;;;2.45;;
46222;SDS011;31943;51.410;7.564;2023-05-07T07:36:24;3.78;;;2.60;;
46222;SDS011;31943;51.410;7.564;2023-05-07T07:38:51;5.47;;;2.65;;
46222;SDS011;31943;51.410;7.564;2023-05-07T07:41:17;4.22;;;3.03;;
46222;SDS011;31943;51.410;7.564;2023-05-07T07:43:43;5.40;;;2.00;;
46222;SDS011;31943;51.410;7.564;2023-05-07T07:46:09;2.70;;;2.10;;
46222;SDS011;31943;51.410;7.564;2023-05-07T07:48:35;5.10;;;2.05;;
46222;SDS011;31943;51.410;7.564;2023-05-07T07:51:03;3.50;;;2.30;;
46222;SDS011;31943;51.410;7.564;2023-05-07T07:53:31;4.05;;;1.90;;
46222;SDS011;31943;51.410;7.564;2023-05-07T07:55:58;4.78;;;2.20;;
46222;SDS011;31943;51.410;7.564;2023-05-07T07:58:24;4.47;;;2.20;;
46222;SDS011;31943;51.410;7.564;2023-05-07T08:00:49;4.05;;;2.10;;
46222;SDS011;31943;51.410;7.564;2023-05-07T08:03:15;3.13;;;2.83;;
46222;SDS011;31943;51.410;7.564;2023-05-07T08:05:40;6.35;;;2.80;;
46222;SDS011;31943;51.410;7.564;2023-05-07T08:08:07;2.83;;;2.50;;
46222;SDS011;31943;51.410;7.564;2023-05-07T08:10:33;3.38;;;2.50;;
46222;SDS011;31943;51.410;7.564;2023-05-07T08:13:00;5.45;;;2.50;;
46222;SDS011;31943;51.410;7.564;2023-05-07T08:15:26;3.50;;;2.22;;
46222;SDS011;31943;51.410;7.564;2023-05-07T08:17:52;3.40;;;2.17;;
46222;SDS011;31943;51.410;7.564;2023-05-07T08:20:18;3.72;;;2.20;;
46222;SDS011;31943;51.410;7.564;2023-05-07T08:22:43;5.03;;;2.15;;
46222;SDS011;31943;51.410;7.564;2023-05-07T08:25:09;4.15;;;2.05;;
46222;SDS011;31943;51.410;7.564;2023-05-07T08:27:35;3.15;;;2.30;;
46222;SDS011;31943;51.410;7.564;2023-05-07T08:30:02;2.42;;;2.17;;
46222;SDS011;31943;51.410;7.564;2023-05-07T08:32:29;2.72;;;1.67;;
46222;SDS011;31943;51.410;7.564;2023-05-07T08:38:37;8.40;;;2.10;;
46222;SDS011;31943;51.410;7.564;2023-05-07T08:44:06;3.03;;;2.13;;
46222;SDS011;31943;51.410;7.564;2023-05-07T08:50:06;4.53;;;2.08;;
46222;SDS011;31943;51.410;7.564;2023-05-07T08:53:02;2.45;;;1.98;;
46222;SDS011;31943;51.410;7.564;2023-05-07T08:55:43;2.38;;;1.70;;
46222;SDS011;31943;51.410;7.564;2023-05-07T08:58:16;3.20;;;2.00;;
46222;SDS011;31943;51.410;7.564;2023-05-07T09:04:28;2.28;;;1.92;;
46222;SDS011;31943;51.410;7.564;2023-05-07T09:14:04;2.90;;;2.08;;
46222;SDS011;31943;51.410;7.564;2023-05-07T09:17:28;7.05;;;4.03;;
46222;SDS011;31943;51.410;7.564;2023-05-07T09:21:12;4.03;;;1.90;;
46222;SDS011;31943;51.410;7.564;2023-05-07T09:31:10;4.88;;;1.70;;
46222;SDS011;31943;51.410;7.564;2023-05-07T12:01:48;7.03;;;6.30;;
46222;SDS011;31943;51.410;7.564;2023-05-07T12:04:18;7.97;;;7.28;;
46222;SDS011;31943;51.410;7.564;2023-05-07T12:06:46;8.93;;;7.43;;
46222;SDS011;31943;51.410;7.564;2023-05-07T12:09:12;8.25;;;7.13;;
46222;SDS011;31943;51.410;7.564;2023-05-07T12:11:37;8.48;;;7.07;;
46222;SDS011;31943;51.410;7.564;2023-05-07T12:14:03;9.15;;;8.25;;
46222;SDS011;31943;51.410;7.564;2023-05-07T12:16:29;10.02;;;7.55;;
46222;SDS011;31943;51.410;7.564;2023-05-07T18:34:59;4.97;;;3.72;;
46222;SDS011;31943;51.410;7.564;2023-05-07T18:37:25;4.63;;;3.97;;
46222;SDS011;31943;51.410;7.564;2023-05-07T18:39:51;4.95;;;4.10;;
46222;SDS011;31943;51.410;7.564;2023-05-07T18:42:20;6.70;;;4.10;;
46222;SDS011;31943;51.410;7.564;2023-05-07T18:44:47;5.88;;;4.50;;
46222;SDS011;31943;51.410;7.564;2023-05-07T18:47:15;5.65;;;4.05;;
46222;SDS011;31943;51.410;7.564;2023-05-07T18:49:44;4.47;;;4.07;;
46222;SDS011;31943;51.410;7.564;2023-05-07T18:52:17;4.80;;;3.80;;
46222;SDS011;31943;51.410;7.564;2023-05-07T18:54:44;4.65;;;3.75;;
46222;SDS011;31943;51.410;7.564;2023-05-07T18:57:10;3.65;;;3.35;;
46222;SDS011;31943;51.410;7.564;2023-05-07T18:59:36;4.35;;;3.72;;
46222;SDS011;31943;51.410;7.564;2023-05-07T19:02:01;4.63;;;3.95;;
46222;SDS011;31943;51.410;7.564;2023-05-07T19:04:29;5.57;;;3.95;;
46222;SDS011;31943;51.410;7.564;2023-05-07T19:06:55;5.55;;;3.90;;
46222;SDS011;31943;51.410;7.564;2023-05-07T19:09:22;4.30;;;3.90;;
46222;SDS011;31943;51.410;7.564;2023-05-07T19:11:48;7.75;;;4.28;;
46222;SDS011;31943;51.410;7.564;2023-05-07T19:14:14;4.10;;;3.70;;
46222;SDS011;31943;51.410;7.564;2023-05-07T19:16:41;4.95;;;4.55;;
46222;SDS011;31943;51.410;7.564;2023-05-07T19:19:08;4.65;;;4.25;;
46222;SDS011;31943;51.410;7.564;2023-05-07T19:21:33;6.25;;;4.45;;
46222;SDS011;31943;51.410;7.564;2023-05-07T19:23:59;5.10;;;4.30;;
46222;SDS011;31943;51.410;7.564;2023-05-07T19:26:28;5.45;;;4.55;;
46222;SDS011;31943;51.410;7.564;2023-05-07T19:28:54;5.88;;;4.78;;
46222;SDS011;31943;51.410;7.564;2023-05-07T19:31:20;5.63;;;4.50;;
46222;SDS011;31943;51.410;7.564;2023-05-07T19:33:47;6.35;;;4.90;;
46222;SDS011;31943;51.410;7.564;2023-05-07T19:36:13;5.22;;;4.72;;
46222;SDS011;31943;51.410;7.564;2023-05-07T19:38:39;5.25;;;4.75;;
46222;SDS011;31943;51.410;7.564;2023-05-07T19:41:05;5.07;;;4.43;;
46222;SDS011;31943;51.410;7.564;2023-05-07T19:43:33;4.93;;;4.53;;
46222;SDS011;31943;51.410;7.564;2023-05-07T19:45:59;4.82;;;4.40;;
46222;SDS011;31943;51.410;7.564;2023-05-07T19:48:27;4.47;;;4.07;;
46222;SDS011;31943;51.410;7.564;2023-05-07T19:50:53;5.80;;;4.93;;
46222;SDS011;31943;51.410;7.564;2023-05-07T19:53:19;6.40;;;4.40;;
46222;SDS011;31943;51.410;7.564;2023-05-07T19:55:45;7.38;;;4.85;;
46222;SDS011;31943;51.410;7.564;2023-05-07T19:58:12;4.95;;;4.22;;
46222;SDS011;31943;51.410;7.564;2023-05-07T20:00:40;5.10;;;4.65;;
46222;SDS011;31943;51.410;7.564;2023-05-07T20:03:06;6.50;;;4.72;;
46222;SDS011;31943;51.410;7.564;2023-05-07T20:05:32;5.50;;;5.00;;
46222;SDS011;31943;51.410;7.564;2023-05-07T20:07:58;6.00;;;5.07;;
46222;SDS011;31943;51.410;7.564;2023-05-07T20:10:24;7.55;;;4.43;;
46222;SDS011;31943;51.410;7.564;2023-05-07T20:12:50;8.95;;;5.90;;
46222;SDS011;31943;51.410;7.564;2023-05-07T20:15:16;5.60;;;5.03;;
46222;SDS011;31943;51.410;7.564;2023-05-07T20:17:46;7.93;;;4.80;;
46222;SDS011;31943;51.410;7.564;2023-05-07T20:20:11;6.25;;;5.45;;
46222;SDS011;31943;51.410;7.564;2023-05-07T20:22:37;7.32;;;5.40;;
46222;SDS011;31943;51.410;7.564;2023-05-07T20:25:03;6.38;;;5.80;;
46222;SDS011;31943;51.410;7.564;2023-05-07T20:27:29;6.68;;;5.85;;
46222;SDS011;31943;51.410;7.564;2023-05-07T20:29:55;6.90;;;5.80;;
46222;SDS011;31943;51.410;7.564;2023-05-07T20:32:21;7.22;;;5.50;;
46222;SDS011;31943;51.410;7.564;2023-05-07T20:34:49;6.85;;;6.18;;
46222;SDS011;31943;51.410;7.564;2023-05-07T20:37:15;7.25;;;5.85;;
46222;SDS011;31943;51.410;7.564;2023-05-07T20:39:41;6.43;;;5.57;;
46222;SDS011;31943;51.410;7.564;2023-05-07T20:42:07;8.25;;;5.47;;
46222;SDS011;31943;51.410;7.564;2023-05-07T20:44:34;6.70;;;5.90;;
46222;SDS011;31943;51.410;7.564;2023-05-07T20:47:01;7.28;;;5.68;;
46222;SDS011;31943;51.410;7.564;2023-05-07T20:49:28;6.28;;;5.45;;
46222;SDS011;31943;51.410;7.564;2023-05-07T20:51:55;7.65;;;6.65;;
46222;SDS011;31943;51.410;7.564;2023-05-07T20:54:21;5.93;;;5.43;;
46222;SDS011;31943;51.410;7.564;2023-05-07T20:56:47;7.40;;;6.05;;
46222;SDS011;31943;51.410;7.564;2023-05-07T20:59:13;8.63;;;5.28;;
46222;SDS011;31943;51.410;7.564;2023-05-07T21:01:39;6.43;;;5.55;;
46222;SDS011;31943;51.410;7.564;2023-05-07T21:04:05;7.38;;;6.43;;
46222;SDS011;31943;51.410;7.564;2023-05-07T21:06:31;6.05;;;5.50;;
46222;SDS011;31943;51.410;7.564;2023-05-07T21:08:58;8.55;;;5.20;;
46222;SDS011;31943;51.410;7.564;2023-05-07T21:11:25;6.82;;;4.70;;
46222;SDS011;31943;51.410;7.564;2023-05-07T21:13:51;7.60;;;5.32;;
46222;SDS011;31943;51.410;7.564;2023-05-07T21:16:17;7.05;;;5.43;;
46222;SDS011;31943;51.410;7.564;2023-05-07T21:18:43;7.40;;;5.80;;
46222;SDS011;31943;51.410;7.564;2023-05-07T21:21:09;8.02;;;6.63;;
46222;SDS011;31943;51.410;7.564;2023-05-07T21:23:35;6.68;;;5.88;;
46222;SDS011;31943;51.410;7.564;2023-05-07T21:26:02;7.20;;;6.43;;
46222;SDS011;31943;51.410;7.564;2023-05-07T21:28:28;9.88;;;7.85;;
46222;SDS011;31943;51.410;7.564;2023-05-07T21:30:54;7.63;;;6.47;;
46222;SDS011;31943;51.410;7.564;2023-05-07T21:33:19;7.30;;;6.60;;
46222;SDS011;31943;51.410;7.564;2023-05-07T21:35:45;8.48;;;7.07;;
46222;SDS011;31943;51.410;7.564;2023-05-07T21:38:11;7.15;;;6.18;;
46222;SDS011;31943;51.410;7.564;2023-05-07T21:40:36;7.50;;;6.72;;
46222;SDS011;31943;51.410;7.564;2023-05-07T21:43:03;7.40;;;6.70;;
46222;SDS011;31943;51.410;7.564;2023-05-07T21:45:29;7.40;;;6.38;;
46222;SDS011;31943;51.410;7.564;2023-05-07T21:47:55;7.68;;;6.85;;
46222;SDS011;31943;51.410;7.564;2023-05-07T21:50:21;6.72;;;6.00;;
46222;SDS011;31943;51.410;7.564;2023-05-07T21:52:47;7.50;;;6.80;;
46222;SDS011;31943;51.410;7.564;2023-05-07T21:55:13;9.40;;;7.05;;
46222;SDS011;31943;51.410;7.564;2023-05-07T21:57:39;7.60;;;6.72;;
46222;SDS011;31943;51.410;7.564;2023-05-07T22:00:07;10.07;;;7.68;;
46222;SDS011;31943;51.410;7.564;2023-05-07T22:02:34;7.95;;;7.25;;
46222;SDS011;31943;51.410;7.564;2023-05-07T22:05:01;9.25;;;7.30;;
46222;SDS011;31943;51.410;7.564;2023-05-07T22:07:27;9.10;;;7.28;;
46222;SDS011;31943;51.410;7.564;2023-05-07T22:09:52;6.93;;;6.22;;
46222;SDS011;31943;51.410;7.564;2023-05-07T22:12:18;7.93;;;6.30;;
46222;SDS011;31943;51.410;7.564;2023-05-07T22:14:45;7.05;;;6.35;;
46222;SDS011;31943;51.410;7.564;2023-05-07T22:17:13;8.45;;;7.25;;
46222;SDS011;31943;51.410;7.564;2023-05-07T22:19:38;7.93;;;7.13;;
46222;SDS011;31943;51.410;7.564;2023-05-07T22:22:05;7.97;;;7.28;;
46222;SDS011;31943;51.410;7.564;2023-05-07T22:24:32;8.43;;;7.68;;
46222;SDS011;31943;51.410;7.564;2023-05-07T22:26:58;9.48;;;7.95;;
46222;SDS011;31943;51.410;7.564;2023-05-07T22:29:24;7.47;;;6.78;;
46222;SDS011;31943;51.410;7.564;2023-05-07T22:31:50;6.88;;;6.13;;
46222;SDS011;31943;51.410;7.564;2023-05-07T22:34:18;6.65;;;6.03;;
46222;SDS011;31943;51.410;7.564;2023-05-07T22:36:43;7.25;;;6.32;;
46222;SDS011;31943;51.410;7.564;2023-05-07T22:39:09;6.30;;;5.57;;
46222;SDS011;31943;51.410;7.564;2023-05-07T22:41:43;6.40;;;5.70;;
46222;SDS011;31943;51.410;7.564;2023-05-07T22:44:09;6.55;;;5.93;;
46222;SDS011;31943;51.410;7.564;2023-05-07T22:46:35;6.28;;;5.28;;
46222;SDS011;31943;51.410;7.564;2023-05-07T22:49:01;6.32;;;5.72;;
46222;SDS011;31943;51.410;7.564;2023-05-07T22:51:28;8.07;;;7.03;;
46222;SDS011;31943;51.410;7.564;2023-05-07T22:53:55;7.05;;;6.35;;
46222;SDS011;31943;51.410;7.564;2023-05-07T22:56:21;8.82;;;7.95;;
46222;SDS011;31943;51.410;7.564;2023-05-07T22:58:47;9.20;;;8.40;;
46222;SDS011;31943;51.410;7.564;2023-05-07T23:01:13;7.82;;;6.85;;
46222;SDS011;31943;51.410;7.564;2023-05-07T23:03:40;8.63;;;7.65;;
46222;SDS011;31943;51.410;7.564;2023-05-07T23:06:06;7.40;;;6.70;;
46222;SDS011;31943;51.410;7.564;2023-05-07T23:08:33;8.00;;;7.30;;
46222;SDS011;31943;51.410;7.564;2023-05-07T23:10:59;8.57;;;7.70;;
46222;SDS011;31943;51.410;7.564;2023-05-07T23:13:25;7.20;;;6.50;;
46222;SDS011;31943;51.410;7.564;2023-05-07T23:15:51;6.40;;;5.82;;
46222;SDS011;31943;51.410;7.564;2023-05-07T23:18:16;8.10;;;6.38;;
46222;SDS011;31943;51.410;7.564;2023-05-07T23:20:45;11.48;;;7.38;;
46222;SDS011;31943;51.410;7.564;2023-05-07T23:23:10;10.50;;;9.18;;
46222;SDS011;31943;51.410;7.564;2023-05-07T23:25:38;14.90;;;9.32;;
46222;SDS011;31943;51.410;7.564;2023-05-07T23:28:04;9.77;;;8.77;;
46222;SDS011;31943;51.410;7.564;2023-05-07T23:30:31;10.70;;;9.40;;
46222;SDS011;31943;51.410;7.564;2023-05-07T23:32:57;10.38;;;8.55;;
46222;SDS011;31943;51.410;7.564;2023-05-07T23:35:22;11.35;;;8.85;;
46222;SDS011;31943;51.410;7.564;2023-05-07T23:37:48;9.43;;;8.52;;
46222;SDS011;31943;51.410;7.564;2023-05-07T23:40:15;8.90;;;8.07;;
46222;SDS011;31943;51.410;7.564;2023-05-07T23:42:43;10.73;;;9.60;;
46222;SDS011;31943;51.410;7.564;2023-05-07T23:45:08;13.95;;;9.52;;
46222;SDS011;31943;51.410;7.564;2023-05-07T23:47:34;14.18;;;12.77;;
46222;SDS011;31943;51.410;7.564;2023-05-07T23:50:00;12.57;;;11.43;;
46222;SDS011;31943;51.410;7.564;2023-05-07T23:52:26;10.80;;;9.80;;
46222;SDS011;31943;51.410;7.564;2023-05-07T23:54:52;9.60;;;8.80;;
46222;SDS011;31943;51.410;7.564;2023-05-07T23:57:17;8.60;;;7.68;;
46222;SDS011;31943;51.410;7.564;2023-05-07T23:59:45;9.20;;;7.88;;
